Time;durP1;ratioP1;P1;durP2;ratioP2;P2;SDS_P1;SDS_P2;PMS_P1;PMS_P2;Temp;Humidity;BMP_temperature;BMP_pressure;BME280_temperature;BME280_humidity;BME280_pressure;Samples;Min_cycle;Max_cycle;Signal;HPM_P1;HPM_P2
2023/12/02 00:02:03;;;;;;;36.80;18.23;;;0.90;99.90;;;;;;5009133;28;20041;-87
2023/12/02 00:04:29;;;;;;;32.05;15.57;;;0.90;99.90;;;;;;5013666;28;20036;-88
2023/12/02 00:06:54;;;;;;;32.70;17.63;;;0.90;99.90;;;;;;5013362;28;20500;-87
2023/12/02 00:09:20;;;;;;;35.03;17.38;;;0.90;99.90;;;;;;5011558;28;20470;-89
2023/12/02 00:11:52;;;;;;;33.13;16.15;;;1.00;99.90;;;;;;5013786;28;20477;-88
2023/12/02 00:14:17;;;;;;;38.15;16.17;;;1.00;99.90;;;;;;5013753;28;20021;-89
2023/12/02 00:16:43;;;;;;;37.35;16.77;;;1.00;99.90;;;;;;5013004;28;20088;-90
2023/12/02 00:19:08;;;;;;;36.72;17.05;;;0.90;99.90;;;;;;5010276;28;20029;-89
2023/12/02 00:21:34;;;;;;;36.25;17.38;;;1.00;99.90;;;;;;4998253;28;20053;-89
2023/12/02 00:23:59;;;;;;;34.22;16.70;;;1.00;99.90;;;;;;5005982;28;20050;-88
2023/12/02 00:26:25;;;;;;;36.55;17.67;;;1.00;99.90;;;;;;5013953;28;20481;-88
2023/12/02 00:28:50;;;;;;;38.47;17.63;;;1.00;99.90;;;;;;5011335;28;20026;-89
2023/12/02 00:31:16;;;;;;;40.10;18.05;;;1.00;99.90;;;;;;5017587;28;20057;-88
2023/12/02 00:33:42;;;;;;;36.35;16.95;;;0.90;99.90;;;;;;5017871;28;20057;-88
2023/12/02 00:36:08;;;;;;;39.08;17.77;;;1.00;99.90;;;;;;5012667;28;20407;-89
2023/12/02 00:38:34;;;;;;;37.33;16.45;;;1.00;99.90;;;;;;5011446;28;20029;-89
2023/12/02 00:40:59;;;;;;;37.03;17.65;;;1.00;99.90;;;;;;5012463;28;20033;-88
2023/12/02 00:43:25;;;;;;;34.20;16.75;;;1.00;99.90;;;;;;5012688;28;20497;-88
2023/12/02 00:45:50;;;;;;;34.55;17.27;;;1.00;99.90;;;;;;5012018;28;20509;-87
2023/12/02 00:48:16;;;;;;;38.22;18.80;;;1.00;99.90;;;;;;5000549;28;20033;-87
2023/12/02 00:50:42;;;;;;;37.03;17.13;;;1.00;99.90;;;;;;4994112;28;20027;-88
2023/12/02 00:53:07;;;;;;;40.35;17.83;;;1.00;99.90;;;;;;4997549;28;20041;-88
2023/12/02 00:55:33;;;;;;;36.45;17.08;;;1.10;99.90;;;;;;4994076;28;20037;-88
2023/12/02 00:57:58;;;;;;;33.38;15.80;;;1.10;99.90;;;;;;5015569;28;20052;-87
2023/12/02 01:00:24;;;;;;;38.05;18.25;;;1.00;99.90;;;;;;5014079;28;20619;-88
2023/12/02 01:02:49;;;;;;;36.33;16.65;;;1.00;99.90;;;;;;5011383;28;20045;-88
2023/12/02 01:05:15;;;;;;;35.60;17.08;;;1.00;99.90;;;;;;5012890;28;20034;-88
2023/12/02 01:07:40;;;;;;;39.63;18.25;;;1.10;99.90;;;;;;5010755;28;20025;-87
2023/12/02 01:10:06;;;;;;;32.30;16.55;;;1.00;99.90;;;;;;5012450;28;20026;-87
2023/12/02 01:12:32;;;;;;;37.58;16.70;;;0.90;99.90;;;;;;5003813;28;20026;-87
2023/12/02 01:14:57;;;;;;;32.53;15.85;;;0.80;99.90;;;;;;4993582;28;20061;-88
2023/12/02 01:17:23;;;;;;;36.83;17.10;;;0.80;99.90;;;;;;5011523;28;20030;-87
2023/12/02 01:19:48;;;;;;;37.00;16.33;;;0.70;99.90;;;;;;5010405;28;20017;-86
2023/12/02 01:22:14;;;;;;;42.25;17.05;;;0.70;99.90;;;;;;5010037;28;20033;-87
2023/12/02 01:24:40;;;;;;;36.67;16.30;;;0.70;99.90;;;;;;5012160;28;20023;-87
2023/12/02 01:27:05;;;;;;;32.80;15.52;;;0.60;99.90;;;;;;5011620;28;20054;-87
2023/12/02 01:29:31;;;;;;;31.38;15.57;;;0.70;99.90;;;;;;5007911;28;20040;-87
2023/12/02 01:31:56;;;;;;;35.30;16.20;;;0.60;99.90;;;;;;5012652;28;20030;-88
2023/12/02 01:34:22;;;;;;;35.67;16.30;;;0.60;99.90;;;;;;5010968;28;20029;-88
2023/12/02 01:36:47;;;;;;;34.70;16.23;;;0.60;99.90;;;;;;5013034;28;20033;-88
2023/12/02 01:39:13;;;;;;;34.95;17.00;;;0.60;99.90;;;;;;5012318;28;20042;-89
2023/12/02 01:41:39;;;;;;;33.83;15.98;;;0.60;99.90;;;;;;5011896;28;20494;-88
2023/12/02 01:44:05;;;;;;;41.67;18.05;;;0.60;99.90;;;;;;5010749;28;20062;-88
2023/12/02 01:46:30;;;;;;;37.35;16.40;;;0.70;99.90;;;;;;5011551;28;20041;-88
2023/12/02 01:48:58;;;;;;;38.55;16.58;;;0.70;99.90;;;;;;5007459;28;20032;-88
2023/12/02 01:51:24;;;;;;;37.55;16.20;;;0.70;99.90;;;;;;5011596;28;20118;-89
2023/12/02 01:53:50;;;;;;;34.40;16.98;;;0.30;99.90;;;;;;5010681;28;20113;-89
2023/12/02 01:56:24;;;;;;;36.80;17.42;;;0.80;99.90;;;;;;5011375;28;20037;-89
2023/12/02 01:58:50;;;;;;;35.55;17.52;;;0.70;99.90;;;;;;5014891;28;20075;-89
2023/12/02 02:01:16;;;;;;;35.55;16.95;;;0.80;99.90;;;;;;5016626;28;20025;-89
2023/12/02 02:03:42;;;;;;;34.47;16.65;;;0.80;99.90;;;;;;5016139;28;20029;-90
2023/12/02 02:06:10;;;;;;;39.75;18.00;;;0.80;99.90;;;;;;5016192;28;20041;-89
2023/12/02 02:08:36;;;;;;;36.70;16.55;;;0.80;99.90;;;;;;5015202;28;20026;-89
2023/12/02 02:11:02;;;;;;;33.53;15.90;;;0.70;99.90;;;;;;5013280;28;20041;-89
2023/12/02 02:13:28;;;;;;;34.03;16.02;;;0.80;99.90;;;;;;5015513;28;20030;-86
2023/12/02 02:15:54;;;;;;;36.10;16.45;;;0.80;99.90;;;;;;5013491;28;20025;-87
2023/12/02 02:18:20;;;;;;;38.13;17.17;;;0.80;99.90;;;;;;5027142;28;20497;-88
2023/12/02 02:20:53;;;;;;;38.67;17.17;;;0.70;99.90;;;;;;5014570;28;20029;-88
2023/12/02 02:23:23;;;;;;;37.45;17.77;;;0.70;99.90;;;;;;5013867;28;20018;-88
2023/12/02 02:25:49;;;;;;;;;;;0.70;99.90;;;;;;4998165;28;20088;-85
2023/12/02 02:28:23;;;;;;;36.53;15.45;;;0.70;99.90;;;;;;5012950;28;19917;-84
2023/12/02 02:30:49;;;;;;;42.13;16.35;;;0.70;99.90;;;;;;5013716;28;20018;-86
2023/12/02 02:33:15;;;;;;;39.60;17.42;;;0.70;99.90;;;;;;4997589;28;20234;-85
2023/12/02 02:35:41;;;;;;;32.97;16.15;;;0.70;99.90;;;;;;4998215;28;20486;-85
2023/12/02 02:38:07;;;;;;;35.63;16.88;;;0.70;99.90;;;;;;5014621;28;20085;-85
2023/12/02 02:40:32;;;;;;;37.08;16.15;;;0.60;99.90;;;;;;5015947;28;20105;-86
2023/12/02 02:42:58;;;;;;;38.03;16.67;;;0.60;99.90;;;;;;5012194;28;20030;-86
2023/12/02 02:45:23;;;;;;;37.60;17.50;;;0.60;99.90;;;;;;5014406;28;20041;-85
2023/12/02 02:47:49;;;;;;;37.38;16.10;;;0.60;99.90;;;;;;5013009;28;20378;-87
2023/12/02 02:50:15;;;;;;;37.10;16.98;;;1.60;99.90;;;;;;5015653;28;20038;-88
2023/12/02 02:52:42;;;;;;;40.13;17.73;;;0.60;99.90;;;;;;5004121;28;20031;-88
2023/12/02 02:55:08;;;;;;;36.05;16.40;;;0.60;99.90;;;;;;4996132;28;20509;-88
2023/12/02 02:57:34;;;;;;;36.40;16.60;;;0.50;99.90;;;;;;5002857;28;20022;-88
2023/12/02 03:00:00;;;;;;;36.25;17.83;;;0.60;99.90;;;;;;5015456;28;20113;-86
2023/12/02 03:02:25;;;;;;;38.80;18.25;;;0.50;99.90;;;;;;5012499;28;20026;-86
2023/12/02 03:04:51;;;;;;;42.33;18.67;;;0.50;99.90;;;;;;5013803;28;20074;-86
2023/12/02 03:07:16;;;;;;;34.90;16.42;;;0.50;99.90;;;;;;5012701;28;20064;-87
2023/12/02 03:09:42;;;;;;;43.20;18.83;;;0.50;99.90;;;;;;5014359;28;20033;-87
2023/12/02 03:12:07;;;;;;;38.92;18.60;;;0.50;99.90;;;;;;5010910;28;20054;-87
2023/12/02 03:14:33;;;;;;;35.85;16.65;;;0.50;99.90;;;;;;5012879;28;20505;-87
2023/12/02 03:16:58;;;;;;;36.45;16.75;;;1.10;99.90;;;;;;5010287;28;20482;-87
2023/12/02 03:19:24;;;;;;;34.70;16.05;;;0.30;99.90;;;;;;5009332;28;20029;-87
2023/12/02 03:21:49;;;;;;;39.92;17.33;;;0.30;99.90;;;;;;5012115;28;20037;-84
2023/12/02 03:24:15;;;;;;;39.15;17.40;;;0.30;99.90;;;;;;5005065;28;20038;-87
2023/12/02 03:26:41;;;;;;;41.67;17.52;;;0.30;99.90;;;;;;4996681;28;20054;-88
2023/12/02 03:29:07;;;;;;;38.70;17.83;;;0.30;99.90;;;;;;5014384;28;20033;-89
2023/12/02 03:31:33;;;;;;;40.22;17.13;;;0.40;99.90;;;;;;5014432;28;20489;-87
2023/12/02 03:33:59;;;;;;;39.22;15.98;;;0.40;99.90;;;;;;5011087;28;20131;-89
2023/12/02 03:36:24;;;;;;;37.05;16.73;;;0.40;99.90;;;;;;5016183;28;20546;-85
2023/12/02 03:38:50;;;;;;;36.80;16.33;;;0.40;99.90;;;;;;5020506;28;20026;-86
2023/12/02 03:41:16;;;;;;;42.30;18.63;;;0.40;99.90;;;;;;5013065;28;20030;-86
2023/12/02 03:43:41;;;;;;;37.00;17.75;;;0.40;99.90;;;;;;5004405;28;20057;-88
2023/12/02 03:46:07;;;;;;;36.53;17.15;;;0.30;99.90;;;;;;4994901;28;20030;-86
2023/12/02 03:48:32;;;;;;;33.95;16.73;;;0.40;99.90;;;;;;5007323;28;20084;-87
2023/12/02 03:50:58;;;;;;;39.78;18.63;;;0.40;99.90;;;;;;5013779;28;20049;-86
2023/12/02 03:53:25;;;;;;;38.38;17.42;;;0.30;99.90;;;;;;5002994;28;20061;-87
2023/12/02 03:55:51;;;;;;;39.00;18.52;;;0.30;99.90;;;;;;5005440;28;20034;-86
2023/12/02 03:58:16;;;;;;;40.13;18.65;;;0.40;99.90;;;;;;5012374;28;20388;-86
2023/12/02 04:00:42;;;;;;;36.63;17.45;;;0.40;99.90;;;;;;5014108;28;20129;-87
2023/12/02 04:03:08;;;;;;;44.55;18.23;;;0.40;99.90;;;;;;5013670;28;20030;-87
2023/12/02 04:05:34;;;;;;;37.92;17.33;;;0.50;99.90;;;;;;5011130;28;20104;-86
2023/12/02 04:07:59;;;;;;;30.63;15.38;;;0.50;99.90;;;;;;5013012;28;20104;-87
2023/12/02 04:10:25;;;;;;;38.92;18.38;;;0.50;99.90;;;;;;5014127;28;20045;-86
2023/12/02 04:12:50;;;;;;;36.20;17.35;;;0.50;99.90;;;;;;5006143;28;20018;-86
2023/12/02 04:15:16;;;;;;;31.98;16.75;;;0.50;99.90;;;;;;5011281;28;20045;-86
2023/12/02 04:17:42;;;;;;;39.25;18.73;;;0.50;99.90;;;;;;5013209;28;20064;-87
2023/12/02 04:20:08;;;;;;;35.85;17.58;;;0.50;99.90;;;;;;5012180;28;20018;-87
2023/12/02 04:22:35;;;;;;;38.83;17.33;;;0.40;99.90;;;;;;5013091;28;20032;-86
2023/12/02 04:25:00;;;;;;;33.47;16.67;;;0.40;99.90;;;;;;5007847;28;20100;-86
2023/12/02 04:27:26;;;;;;;37.88;18.13;;;0.50;99.90;;;;;;5002954;28;20046;-87
2023/12/02 04:29:51;;;;;;;34.72;17.92;;;0.40;99.90;;;;;;5012812;28;20026;-88
2023/12/02 04:32:17;;;;;;;45.05;18.33;;;0.40;99.90;;;;;;5014269;28;20101;-87
2023/12/02 04:34:43;;;;;;;36.15;17.65;;;0.40;99.90;;;;;;5011574;28;20072;-88
2023/12/02 04:37:08;;;;;;;37.47;19.08;;;0.40;99.90;;;;;;5012186;28;20041;-87
2023/12/02 04:39:34;;;;;;;36.17;18.20;;;0.40;99.90;;;;;;5009013;28;20061;-87
2023/12/02 04:41:59;;;;;;;37.75;17.33;;;0.40;99.90;;;;;;5013531;28;20394;-87
2023/12/02 04:44:25;;;;;;;40.35;17.90;;;0.30;99.90;;;;;;5012825;28;20049;-87
2023/12/02 04:46:51;;;;;;;42.95;18.55;;;0.20;99.90;;;;;;4998775;28;20519;-84
2023/12/02 04:49:16;;;;;;;38.08;17.35;;;0.20;99.90;;;;;;4997242;28;20114;-84
2023/12/02 04:51:42;;;;;;;35.13;17.55;;;0.20;99.90;;;;;;4999719;28;20470;-84
2023/12/02 04:54:07;;;;;;;36.88;17.95;;;0.20;99.90;;;;;;5007740;28;20030;-85
2023/12/02 04:56:33;;;;;;;39.50;18.35;;;0.20;99.90;;;;;;4998344;28;20041;-85
2023/12/02 04:58:58;;;;;;;41.58;19.40;;;0.20;99.90;;;;;;5006215;28;20466;-85
2023/12/02 05:01:24;;;;;;;40.83;18.85;;;0.20;99.90;;;;;;5011982;28;20474;-85
2023/12/02 05:03:49;;;;;;;34.58;17.08;;;0.20;99.90;;;;;;5009287;28;20553;-85
2023/12/02 05:06:15;;;;;;;37.83;17.20;;;0.20;99.90;;;;;;5008064;28;20390;-85
2023/12/02 05:08:43;;;;;;;37.80;17.80;;;0.20;99.90;;;;;;5012243;28;20026;-86
2023/12/02 05:11:08;;;;;;;42.85;18.92;;;0.20;99.90;;;;;;5012939;28;20030;-87
2023/12/02 05:13:34;;;;;;;39.83;18.08;;;0.30;99.90;;;;;;5010672;28;20374;-87
2023/12/02 05:15:59;;;;;;;38.58;18.27;;;0.20;99.90;;;;;;5011105;28;20125;-87
2023/12/02 05:18:25;;;;;;;40.67;18.80;;;0.20;99.90;;;;;;5009514;28;20100;-87
2023/12/02 05:20:50;;;;;;;36.80;18.20;;;0.30;99.90;;;;;;5012462;28;20033;-87
2023/12/02 05:23:16;;;;;;;38.65;18.63;;;0.30;99.90;;;;;;5010773;28;20029;-88
2023/12/02 05:25:41;;;;;;;40.45;17.52;;;0.30;99.90;;;;;;5010877;28;20040;-87
2023/12/02 05:28:07;;;;;;;40.35;19.17;;;0.30;99.90;;;;;;5010415;28;20026;-86
2023/12/02 05:30:36;;;;;;;39.30;18.13;;;0.30;99.90;;;;;;5012543;28;20105;-87
2023/12/02 05:33:01;;;;;;;39.20;18.67;;;0.30;99.90;;;;;;5007988;28;20038;-86
2023/12/02 05:35:27;;;;;;;41.50;19.33;;;0.30;99.90;;;;;;5011031;28;20041;-86
2023/12/02 05:37:52;;;;;;;40.70;18.48;;;0.40;99.90;;;;;;5011847;28;20030;-86
2023/12/02 05:40:18;;;;;;;38.50;17.75;;;0.30;99.90;;;;;;5012086;28;20037;-86
2023/12/02 05:42:44;;;;;;;39.58;18.23;;;0.30;99.90;;;;;;5000301;28;20022;-86
2023/12/02 05:45:09;;;;;;;42.42;17.63;;;0.40;99.90;;;;;;4994309;28;20054;-86
2023/12/02 05:47:35;;;;;;;41.10;18.50;;;0.30;99.90;;;;;;5011510;28;20305;-86
2023/12/02 05:50:01;;;;;;;44.47;18.83;;;0.40;99.90;;;;;;5010416;28;20518;-85
2023/12/02 05:52:27;;;;;;;41.90;18.85;;;0.30;99.90;;;;;;5012398;28;20466;-86
2023/12/02 05:54:53;;;;;;;38.92;18.90;;;0.40;99.90;;;;;;5009678;28;20103;-86
2023/12/02 05:57:18;;;;;;;37.53;18.83;;;0.40;99.90;;;;;;5012392;28;20057;-86
2023/12/02 05:59:44;;;;;;;41.38;20.02;;;0.40;99.90;;;;;;4998571;28;20033;-85
2023/12/02 06:02:09;;;;;;;44.20;19.10;;;0.50;99.90;;;;;;4996340;28;20517;-86
2023/12/02 06:04:35;;;;;;;39.83;18.38;;;0.50;99.90;;;;;;4998768;28;20038;-85
2023/12/02 06:07:00;;;;;;;41.88;19.75;;;0.50;99.90;;;;;;5010879;28;20088;-85
2023/12/02 06:09:26;;;;;;;40.80;19.77;;;0.50;99.90;;;;;;5009766;28;20018;-85
2023/12/02 06:11:51;;;;;;;42.90;18.92;;;0.40;99.90;;;;;;5011936;28;20036;-85
2023/12/02 06:14:17;;;;;;;38.72;18.10;;;0.40;99.90;;;;;;5008888;28;20373;-85
2023/12/02 06:16:43;;;;;;;41.40;18.58;;;0.40;99.90;;;;;;5011626;28;20045;-86
2023/12/02 06:19:08;;;;;;;39.20;18.35;;;0.50;99.90;;;;;;5011788;28;20502;-85
2023/12/02 06:21:34;;;;;;;46.22;20.92;;;0.50;99.90;;;;;;5009178;28;20038;-85
2023/12/02 06:24:00;;;;;;;38.67;19.08;;;0.50;99.90;;;;;;5010853;28;20066;-85
2023/12/02 06:26:26;;;;;;;41.28;20.00;;;0.50;99.90;;;;;;5011146;28;20085;-85
2023/12/02 06:28:51;;;;;;;45.47;20.70;;;0.50;99.90;;;;;;5009115;28;20145;-86
2023/12/02 06:31:17;;;;;;;43.15;19.90;;;0.50;99.90;;;;;;5011214;28;20041;-86
2023/12/02 06:33:43;;;;;;;39.00;18.27;;;0.50;99.90;;;;;;5007937;28;20026;-88
2023/12/02 06:36:09;;;;;;;39.88;18.88;;;0.50;99.90;;;;;;5010696;28;20038;-85
2023/12/02 06:38:38;;;;;;;38.45;18.50;;;0.50;99.90;;;;;;5002818;28;20026;-85
2023/12/02 06:41:04;;;;;;;44.35;20.63;;;0.50;99.90;;;;;;4999762;28;20030;-86
2023/12/02 06:43:30;;;;;;;38.10;18.95;;;0.50;99.90;;;;;;4996181;28;20506;-85
2023/12/02 06:45:55;;;;;;;43.30;20.73;;;0.40;99.90;;;;;;4999578;28;20037;-85
2023/12/02 06:48:21;;;;;;;41.20;19.08;;;0.40;99.90;;;;;;4997906;28;20022;-86
2023/12/02 06:50:46;;;;;;;41.85;19.30;;;0.40;99.90;;;;;;4992798;28;20030;-85
2023/12/02 06:53:15;;;;;;;38.58;18.83;;;0.50;99.90;;;;;;5006375;28;20084;-85
2023/12/02 06:55:41;;;;;;;40.53;18.90;;;1.20;99.90;;;;;;5011032;28;20060;-84
2023/12/02 06:58:07;;;;;;;42.50;19.50;;;0.60;99.90;;;;;;5002880;28;20466;-85
2023/12/02 07:00:33;;;;;;;43.03;18.75;;;0.50;99.90;;;;;;5003807;28;20421;-85
2023/12/02 07:02:59;;;;;;;51.55;22.50;;;0.50;99.90;;;;;;5006313;28;20400;-85
2023/12/02 07:05:25;;;;;;;43.10;19.63;;;0.50;99.90;;;;;;5012402;28;20025;-85
2023/12/02 07:07:50;;;;;;;42.33;19.50;;;0.50;99.90;;;;;;4999575;28;20356;-85
2023/12/02 07:10:16;;;;;;;45.65;20.65;;;0.40;99.90;;;;;;4997853;28;20034;-84
2023/12/02 07:12:41;;;;;;;45.20;19.33;;;0.50;99.90;;;;;;5000997;28;20513;-85
2023/12/02 07:15:08;;;;;;;40.95;19.35;;;0.50;99.90;;;;;;4994781;28;20472;-85
2023/12/02 07:17:33;;;;;;;45.30;20.05;;;0.50;99.90;;;;;;5012830;28;20088;-85
2023/12/02 07:20:00;;;;;;;44.47;19.77;;;0.60;99.90;;;;;;5003249;28;20549;-85
2023/12/02 07:22:26;;;;;;;45.78;19.77;;;0.50;99.90;;;;;;5012181;28;20401;-85
2023/12/02 07:24:52;;;;;;;41.83;19.58;;;0.60;99.90;;;;;;5010146;28;20044;-85
2023/12/02 07:27:18;;;;;;;48.05;20.67;;;0.60;99.90;;;;;;5012328;28;20502;-85
2023/12/02 07:29:44;;;;;;;48.15;20.27;;;0.60;99.90;;;;;;5010356;28;20470;-85
2023/12/02 07:32:09;;;;;;;43.13;20.40;;;0.60;99.90;;;;;;5009515;28;20018;-86
2023/12/02 07:34:35;;;;;;;46.13;20.55;;;0.70;99.90;;;;;;5005247;28;20092;-85
2023/12/02 07:37:01;;;;;;;49.45;20.48;;;0.70;99.90;;;;;;5012653;28;20038;-84
2023/12/02 07:39:27;;;;;;;51.45;21.05;;;0.70;99.90;;;;;;5013414;28;20022;-85
2023/12/02 07:41:52;;;;;;;42.45;20.35;;;0.70;99.90;;;;;;5005804;28;20027;-85
2023/12/02 07:44:18;;;;;;;46.53;20.75;;;0.60;99.90;;;;;;5012420;28;20032;-85
2023/12/02 07:46:43;;;;;;;43.38;20.42;;;0.60;99.90;;;;;;5010366;28;20029;-85
2023/12/02 07:49:09;;;;;;;46.38;21.63;;;0.60;99.90;;;;;;5004017;28;20475;-85
2023/12/02 07:51:34;;;;;;;42.65;18.55;;;0.60;99.90;;;;;;4994442;28;20600;-86
2023/12/02 07:54:00;;;;;;;43.47;19.42;;;0.60;99.90;;;;;;5000972;28;20509;-86
2023/12/02 07:56:26;;;;;;;43.80;20.77;;;0.60;99.90;;;;;;5005212;28;20087;-85
2023/12/02 07:58:53;;;;;;;47.38;21.33;;;0.60;99.90;;;;;;5014459;28;20358;-86
2023/12/02 08:01:19;;;;;;;52.67;21.17;;;0.50;99.90;;;;;;5008418;28;20034;-86
2023/12/02 08:03:44;;;;;;;48.95;22.40;;;0.60;99.90;;;;;;5011370;28;20100;-85
2023/12/02 08:06:10;;;;;;;46.72;22.25;;;0.60;99.90;;;;;;5012281;28;20029;-85
2023/12/02 08:08:36;;;;;;;57.65;21.65;;;0.60;99.90;;;;;;5000854;28;20030;-85
2023/12/02 08:11:01;;;;;;;43.65;19.95;;;0.60;99.90;;;;;;5013555;28;20480;-86
2023/12/02 08:13:27;;;;;;;47.47;21.35;;;0.70;99.90;;;;;;5010517;28;20030;-88
2023/12/02 08:15:52;;;;;;;47.80;21.30;;;0.70;99.90;;;;;;5011049;28;20034;-86
2023/12/02 08:18:20;;;;;;;48.53;20.90;;;0.70;99.90;;;;;;5012872;28;20386;-85
2023/12/02 08:20:46;;;;;;;48.03;21.48;;;0.60;99.90;;;;;;4997773;28;20045;-85
2023/12/02 08:23:12;;;;;;;48.33;20.67;;;0.60;99.90;;;;;;4996023;28;20150;-87
2023/12/02 08:25:39;;;;;;;49.15;20.90;;;0.50;99.90;;;;;;5005305;28;20081;-85
2023/12/02 08:28:04;;;;;;;46.63;21.05;;;0.60;99.90;;;;;;5007817;28;20531;-85
2023/12/02 08:30:30;;;;;;;49.47;21.45;;;0.60;99.90;;;;;;4999218;28;20486;-84
2023/12/02 08:32:55;;;;;;;45.15;20.63;;;0.50;99.90;;;;;;5001276;28;20030;-87
2023/12/02 08:35:21;;;;;;;48.42;20.98;;;0.60;99.90;;;;;;4998559;28;20046;-88
2023/12/02 08:37:47;;;;;;;50.08;21.20;;;0.70;99.90;;;;;;5007884;28;20018;-85
2023/12/02 08:40:13;;;;;;;44.13;20.73;;;0.70;99.90;;;;;;5007682;28;20402;-92
2023/12/02 08:42:38;;;;;;;45.58;21.15;;;1.50;99.90;;;;;;5009269;28;20053;-88
2023/12/02 08:45:04;;;;;;;47.60;21.65;;;0.70;99.90;;;;;;5006325;28;20688;-88
2023/12/02 08:47:31;;;;;;;48.72;22.17;;;0.70;99.90;;;;;;5011883;28;20026;-86
2023/12/02 08:49:57;;;;;;;49.55;21.90;;;0.70;99.90;;;;;;5009444;28;20080;-86
2023/12/02 08:52:22;;;;;;;50.40;21.92;;;0.70;99.90;;;;;;5011021;28;20030;-86
2023/12/02 08:54:48;;;;;;;50.83;21.63;;;0.70;99.90;;;;;;5006578;28;20034;-91
2023/12/02 08:57:14;;;;;;;51.20;22.15;;;0.70;99.90;;;;;;5030067;28;20021;-90
2023/12/02 08:59:39;;;;;;;48.47;21.88;;;0.80;99.90;;;;;;5010218;28;20026;-89
2023/12/02 09:02:07;;;;;;;47.83;22.15;;;0.80;99.90;;;;;;5001361;28;20038;-90
2023/12/02 09:04:32;;;;;;;52.85;22.33;;;1.80;99.90;;;;;;5006120;28;20462;-89
2023/12/02 09:06:58;;;;;;;53.50;23.38;;;0.80;99.90;;;;;;5013259;28;20037;-89
2023/12/02 09:09:24;;;;;;;52.03;24.35;;;0.80;99.90;;;;;;5012104;28;20022;-88
2023/12/02 09:11:50;;;;;;;54.38;24.88;;;0.90;99.90;;;;;;5013025;28;20117;-87
2023/12/02 09:14:15;;;;;;;46.67;21.90;;;0.80;99.90;;;;;;5000682;28;20033;-85
2023/12/02 09:16:46;;;;;;;53.08;24.50;;;0.90;99.90;;;;;;4994374;28;20066;-87
2023/12/02 09:19:54;;;;;;;48.65;21.83;;;0.90;99.90;;;;;;4998315;28;20030;-86
2023/12/02 09:22:46;;;;;;;57.28;23.98;;;0.90;99.90;;;;;;4986442;28;20033;-87
2023/12/02 09:25:26;;;;;;;50.00;22.65;;;1.00;99.90;;;;;;5008370;28;20034;-84
2023/12/02 09:28:11;;;;;;;54.38;22.65;;;1.00;99.90;;;;;;5007114;28;20073;-86
2023/12/02 09:30:40;;;;;;;51.90;24.00;;;1.00;99.90;;;;;;4999456;28;20037;-87
2023/12/02 09:33:06;;;;;;;58.88;24.02;;;1.10;99.90;;;;;;5001715;28;20033;-94
2023/12/02 09:35:33;;;;;;;50.13;22.38;;;1.10;99.90;;;;;;5018228;28;20057;-91
2023/12/02 09:38:03;;;;;;;54.42;23.40;;;1.10;99.90;;;;;;5013199;28;20065;-85
2023/12/02 09:41:03;;;;;;;46.17;22.30;;;1.20;99.90;;;;;;4992452;28;20038;-88
2023/12/02 09:43:43;;;;;;;52.53;23.00;;;1.20;99.90;;;;;;4997479;28;20478;-85
2023/12/02 09:46:21;;;;;;;51.47;23.05;;;1.20;99.90;;;;;;4999989;28;20045;-85
2023/12/02 09:49:21;;;;;;;52.10;23.20;;;1.20;99.90;;;;;;4999525;28;20481;-92
2023/12/02 09:51:49;;;;;;;46.58;22.10;;;1.30;99.90;;;;;;4999280;28;20030;-87
2023/12/02 09:54:32;;;;;;;49.00;22.02;;;1.20;99.90;;;;;;5000356;28;20022;-86
2023/12/02 09:57:09;;;;;;;47.10;21.83;;;1.30;99.90;;;;;;4988987;28;20526;-86
2023/12/02 09:59:51;;;;;;;48.42;21.83;;;1.30;99.90;;;;;;5001674;28;20022;-88
2023/12/02 10:02:53;;;;;;;50.88;23.77;;;1.30;99.90;;;;;;5002775;28;20045;-87
2023/12/02 10:05:19;;;;;;;50.47;24.25;;;1.30;99.90;;;;;;4996285;28;20026;-86
2023/12/02 10:07:59;;;;;;;55.88;24.70;;;1.40;99.90;;;;;;5010372;28;20030;-85
2023/12/02 10:10:27;;;;;;;51.70;24.27;;;1.40;99.90;;;;;;5004480;28;20037;-85
2023/12/02 10:13:08;;;;;;;54.63;24.25;;;1.40;99.90;;;;;;5009258;28;20041;-86
2023/12/02 10:15:37;;;;;;;48.30;22.88;;;1.40;99.90;;;;;;5006470;28;20034;-86
2023/12/02 10:18:14;;;;;;;50.15;22.50;;;1.40;99.90;;;;;;5001227;28;20030;-85
2023/12/02 10:20:42;;;;;;;54.30;23.80;;;1.40;99.90;;;;;;5007000;28;20072;-84
2023/12/02 11:06:05;;;;;;;56.72;23.55;;;1.50;99.90;;;;;;5053278;28;20481;-83
2023/12/02 11:08:43;;;;;;;53.85;22.33;;;1.60;99.90;;;;;;5062972;28;20021;-84
2023/12/02 11:11:14;;;;;;;57.83;25.30;;;1.70;99.90;;;;;;5069143;28;20029;-89
2023/12/02 11:13:42;;;;;;;52.95;25.27;;;1.70;99.90;;;;;;5057791;28;20056;-90
2023/12/02 11:16:19;;;;;;;52.75;24.08;;;1.70;99.90;;;;;;5050299;28;20025;-93
2023/12/02 11:19:13;;;;;;;56.08;23.73;;;1.70;99.90;;;;;;5048827;28;20053;-88
2023/12/02 11:22:22;;;;;;;51.65;24.13;;;1.70;99.90;;;;;;5049548;28;20033;-88
2023/12/02 11:25:09;;;;;;;50.10;23.40;;;1.80;99.90;;;;;;5049104;28;20037;-90
2023/12/02 11:27:46;;;;;;;54.85;23.80;;;1.80;99.90;;;;;;5056257;28;20428;-89
2023/12/02 11:30:26;;;;;;;52.67;24.02;;;1.80;99.90;;;;;;5071904;28;20035;-91
2023/12/02 11:33:29;;;;;;;52.50;24.58;;;1.80;99.90;;;;;;5051833;28;20032;-92
2023/12/02 11:36:04;;;;;;;51.28;23.48;;;1.80;99.90;;;;;;5048630;28;20037;-90
2023/12/02 11:38:32;;;;;;;54.08;23.73;;;1.90;99.90;;;;;;5063006;28;20075;-91
2023/12/02 11:41:37;;;;;;;51.05;22.88;;;1.90;99.90;;;;;;5050665;28;20477;-91
2023/12/02 11:44:28;;;;;;;52.90;23.98;;;2.00;99.90;;;;;;5048510;28;20029;-91
2023/12/02 11:47:21;;;;;;;50.97;24.50;;;2.10;99.90;;;;;;5049260;28;20033;-91
2023/12/02 11:50:11;;;;;;;52.60;23.88;;;2.10;99.90;;;;;;5050010;28;20400;-90
2023/12/02 11:53:20;;;;;;;57.65;25.25;;;2.10;99.90;;;;;;5048473;28;20021;-90
2023/12/02 11:56:04;;;;;;;53.50;23.90;;;2.10;99.90;;;;;;5088162;28;20032;-92
2023/12/02 11:58:53;;;;;;;49.65;23.48;;;2.10;99.90;;;;;;5053518;28;20037;-87
2023/12/02 12:01:56;;;;;;;54.67;23.73;;;2.10;99.90;;;;;;5049207;28;20063;-88
2023/12/02 12:05:05;;;;;;;54.75;24.05;;;2.20;99.90;;;;;;5066134;28;20065;-86
2023/12/02 12:08:04;;;;;;;52.58;22.58;;;2.10;99.90;;;;;;5056045;28;20552;-87
2023/12/02 12:10:37;;;;;;;51.53;24.20;;;2.20;99.90;;;;;;5066726;28;20106;-87
2023/12/02 12:13:03;;;;;;;57.22;24.15;;;2.20;99.90;;;;;;5056562;28;20052;-86
2023/12/02 12:15:32;;;;;;;52.00;23.45;;;2.20;99.90;;;;;;5043317;28;20033;-89
2023/12/02 12:17:58;;;;;;;53.13;24.20;;;2.20;99.90;;;;;;5036757;28;20021;-87
2023/12/02 12:20:26;;;;;;;55.53;24.20;;;2.20;99.90;;;;;;5038063;28;20029;-88
2023/12/02 12:22:51;;;;;;;57.80;25.13;;;2.30;99.90;;;;;;5039873;28;20032;-88
2023/12/02 12:25:17;;;;;;;54.88;23.45;;;2.30;99.90;;;;;;5036000;28;20080;-87
2023/12/02 12:27:43;;;;;;;54.67;24.38;;;2.30;99.90;;;;;;5035658;28;20378;-86
2023/12/02 12:30:10;;;;;;;52.67;22.85;;;2.40;99.90;;;;;;5053195;28;20033;-87
2023/12/02 12:32:37;;;;;;;54.53;23.63;;;2.40;99.90;;;;;;5034985;28;20029;-86
2023/12/02 12:35:14;;;;;;;51.28;24.67;;;2.40;99.90;;;;;;5034569;28;20068;-91
2023/12/02 12:37:41;;;;;;;53.47;24.35;;;2.40;99.90;;;;;;5039783;28;20156;-92
2023/12/02 12:40:12;;;;;;;59.78;25.40;;;2.40;99.90;;;;;;5054326;28;20025;-89
2023/12/02 12:42:46;;;;;;;62.67;25.80;;;2.40;99.90;;;;;;5055009;28;20029;-92
2023/12/02 12:45:12;;;;;;;62.10;27.77;;;2.50;99.90;;;;;;5034117;28;20045;-92
2023/12/02 12:47:38;;;;;;;56.10;25.95;;;2.50;99.90;;;;;;5035067;28;20028;-91
2023/12/02 12:50:10;;;;;;;62.03;26.23;;;2.40;99.90;;;;;;5048161;28;20021;-86
2023/12/02 12:52:50;;;;;;;58.80;26.52;;;2.40;99.90;;;;;;5068750;28;20146;-91
2023/12/02 12:55:21;;;;;;;56.67;26.33;;;2.50;99.90;;;;;;5065252;28;20550;-89
2023/12/02 12:57:50;;;;;;;57.58;27.50;;;2.50;99.90;;;;;;5071708;28;20032;-90
2023/12/02 13:00:17;;;;;;;65.40;27.85;;;2.50;99.90;;;;;;5038478;28;20104;-90
2023/12/02 13:02:52;;;;;;;64.68;27.67;;;2.50;99.90;;;;;;5034635;28;20018;-93
2023/12/02 13:05:21;;;;;;;61.05;28.02;;;2.50;99.90;;;;;;5050338;28;20429;-92
2023/12/02 13:08:01;;;;;;;63.45;28.17;;;2.50;99.90;;;;;;5045712;28;20024;-90
2023/12/02 13:10:32;;;;;;;63.58;28.33;;;2.50;99.90;;;;;;5036653;28;20507;-90
2023/12/02 13:13:01;;;;;;;69.47;30.20;;;2.50;99.90;;;;;;5034695;28;20029;-93
2023/12/02 13:15:29;;;;;;;67.03;29.98;;;2.50;99.90;;;;;;5039872;28;20029;-93
2023/12/02 13:17:56;;;;;;;61.70;28.17;;;2.50;99.90;;;;;;5055035;28;20044;-93
2023/12/02 13:20:23;;;;;;;66.07;29.23;;;2.60;99.90;;;;;;5055245;28;20024;-92
2023/12/02 13:22:52;;;;;;;72.10;30.63;;;2.60;99.90;;;;;;5055070;28;20079;-91
2023/12/02 13:25:19;;;;;;;71.13;30.00;;;2.60;99.90;;;;;;5055050;28;20033;-88
2023/12/02 13:27:45;;;;;;;64.15;28.85;;;2.70;99.90;;;;;;5045658;28;20132;-91
2023/12/02 13:30:11;;;;;;;67.22;27.92;;;2.70;99.90;;;;;;5048501;28;20112;-89